createdAt,value
2018-06-16T00:00:54.961Z,100.0
2018-06-16T00:01:55.635Z,100.0
2018-06-16T00:02:56.312Z,100.0
2018-06-16T00:03:57.231Z,100.0
2018-06-16T00:04:57.925Z,100.0
2018-06-16T00:05:58.599Z,100.0
2018-06-16T00:06:59.330Z,100.0
2018-06-16T00:08:00.064Z,100.0
2018-06-16T00:09:00.731Z,100.0
2018-06-16T00:10:01.411Z,100.0
2018-06-16T00:11:02.097Z,100.0
2018-06-16T00:12:02.768Z,100.0
2018-06-16T00:13:03.559Z,100.0
2018-06-16T00:14:04.235Z,100.0
2018-06-16T00:15:04.907Z,100.0
2018-06-16T00:16:05.584Z,100.0
2018-06-16T00:17:06.262Z,100.0
2018-06-16T00:18:06.943Z,100.0
2018-06-16T00:19:07.872Z,100.0
2018-06-16T00:20:08.539Z,100.0
2018-06-16T00:21:09.210Z,100.0
2018-06-16T00:22:09.890Z,100.0
2018-06-16T00:23:10.575Z,100.0
2018-06-16T00:24:11.247Z,100.0
2018-06-16T00:25:11.927Z,100.0
2018-06-16T00:26:12.591Z,100.0
2018-06-16T00:27:13.267Z,100.0
2018-06-16T00:28:13.951Z,100.0
2018-06-16T00:29:14.638Z,100.0
2018-06-16T00:30:15.571Z,100.0
2018-06-16T00:31:16.346Z,100.0
2018-06-16T00:32:17.017Z,100.0
2018-06-16T00:33:17.718Z,100.0
2018-06-16T00:34:18.393Z,100.0
2018-06-16T00:35:19.070Z,100.0
2018-06-16T00:36:19.736Z,100.0
2018-06-16T00:37:20.423Z,100.0
2018-06-16T00:38:21.106Z,100.0
2018-06-16T00:39:21.788Z,100.0
2018-06-16T00:40:22.462Z,100.0
2018-06-16T00:41:23.185Z,100.0
2018-06-16T00:42:23.819Z,100.0
2018-06-16T00:43:24.486Z,100.0
2018-06-16T00:44:25.154Z,100.0
2018-06-16T00:45:26.071Z,100.0
2018-06-16T00:46:26.896Z,100.0
2018-06-16T00:47:27.585Z,100.0
2018-06-16T00:48:28.266Z,100.0
2018-06-16T00:49:28.952Z,100.0
2018-06-16T00:50:29.614Z,100.0
2018-06-16T00:51:30.697Z,100.0
2018-06-16T00:52:31.359Z,100.0
2018-06-16T00:53:32.140Z,100.0
2018-06-16T00:54:32.814Z,100.0
2018-06-16T00:55:33.567Z,100.0
2018-06-16T00:56:34.313Z,100.0
2018-06-16T00:57:35.163Z,100.0
2018-06-16T00:58:35.843Z,100.0
2018-06-16T00:59:36.633Z,100.0
2018-06-16T01:00:37.385Z,100.0
2018-06-16T01:01:38.190Z,100.0
2018-06-16T01:02:38.900Z,100.0
2018-06-16T01:03:39.604Z,100.0
2018-06-16T01:04:40.316Z,100.0
2018-06-16T01:05:41.020Z,100.0
2018-06-16T01:06:41.756Z,100.0
2018-06-16T01:07:42.558Z,100.0
2018-06-16T01:08:43.299Z,100.0
2018-06-16T01:09:44.118Z,100.0
2018-06-16T01:10:44.846Z,100.0
2018-06-16T01:11:45.625Z,100.0
2018-06-16T01:12:46.390Z,100.0
2018-06-16T01:13:47.425Z,100.0
2018-06-16T01:14:48.157Z,100.0
2018-06-16T01:15:49.393Z,100.0
2018-06-16T01:16:57.118Z,100.0
2018-06-16T01:17:57.792Z,100.0
2018-06-16T01:18:58.461Z,100.0
2018-06-16T01:19:59.230Z,100.0
2018-06-16T01:20:59.911Z,100.0
2018-06-16T01:22:00.591Z,100.0
2018-06-16T01:23:01.254Z,100.0
2018-06-16T01:24:01.932Z,100.0
2018-06-16T01:25:02.608Z,100.0
2018-06-16T01:26:03.296Z,100.0
2018-06-16T01:27:03.975Z,100.0
2018-06-16T01:28:04.696Z,100.0
2018-06-16T01:29:05.395Z,100.0
2018-06-16T01:30:06.069Z,100.0
2018-06-16T01:31:06.738Z,100.0
2018-06-16T01:32:07.424Z,100.0
2018-06-16T01:33:08.193Z,100.0
2018-06-16T01:34:09.116Z,100.0
2018-06-16T01:35:10.045Z,100.0
2018-06-16T01:36:10.708Z,100.0
2018-06-16T01:37:11.386Z,100.0
2018-06-16T01:38:12.154Z,100.0
2018-06-16T01:39:12.829Z,100.0
2018-06-16T01:40:13.517Z,100.0
2018-06-16T01:41:14.191Z,100.0
2018-06-16T01:42:14.871Z,100.0
2018-06-16T01:43:15.560Z,100.0
2018-06-16T01:44:16.237Z,100.0
2018-06-16T01:45:16.975Z,100.0
2018-06-16T01:46:17.649Z,100.0
2018-06-16T01:47:18.329Z,100.0
2018-06-16T01:48:19.000Z,100.0
2018-06-16T01:49:19.666Z,100.0
2018-06-16T01:50:20.364Z,100.0
2018-06-16T01:51:21.050Z,100.0
2018-06-16T01:52:21.708Z,100.0
2018-06-16T01:53:22.398Z,100.0
2018-06-16T01:54:23.060Z,100.0
2018-06-16T01:55:23.730Z,100.0
2018-06-16T01:56:24.408Z,100.0
2018-06-16T01:57:25.080Z,100.0
2018-06-16T01:58:25.760Z,100.0
2018-06-16T01:59:26.681Z,100.0
2018-06-16T02:00:27.372Z,100.0
2018-06-16T02:01:28.204Z,100.0
2018-06-16T02:02:28.879Z,100.0
2018-06-16T02:03:29.558Z,100.0
2018-06-16T02:04:30.231Z,100.0
2018-06-16T02:05:30.916Z,100.0
2018-06-16T02:06:31.694Z,100.0
2018-06-16T02:07:32.371Z,100.0
2018-06-16T02:08:33.042Z,100.0
2018-06-16T02:09:33.734Z,100.0
2018-06-16T02:10:34.396Z,100.0
2018-06-16T02:11:35.172Z,100.0
2018-06-16T02:12:35.869Z,100.0
2018-06-16T02:13:36.536Z,100.0
2018-06-16T02:14:37.215Z,100.0
2018-06-16T02:15:38.135Z,100.0
2018-06-16T02:16:38.818Z,100.0
2018-06-16T02:17:39.501Z,100.0
2018-06-16T02:18:40.169Z,100.0
2018-06-16T02:19:40.851Z,100.0
2018-06-16T02:20:41.525Z,100.0
2018-06-16T02:21:42.205Z,100.0
2018-06-16T02:22:43.127Z,100.0
2018-06-16T02:23:43.826Z,100.0
2018-06-16T02:24:44.498Z,100.0
2018-06-16T02:25:45.176Z,100.0
2018-06-16T02:26:46.100Z,100.0
2018-06-16T02:27:46.774Z,100.0
2018-06-16T02:28:47.440Z,100.0
2018-06-16T02:29:48.119Z,100.0
2018-06-16T02:30:48.791Z,100.0
2018-06-16T02:31:49.456Z,100.0
2018-06-16T02:32:50.140Z,100.0
2018-06-16T02:33:50.816Z,100.0
2018-06-16T02:34:51.548Z,100.0
2018-06-16T02:35:52.223Z,100.0
2018-06-16T02:36:52.911Z,100.0
2018-06-16T02:37:53.585Z,100.0
2018-06-16T02:38:54.258Z,100.0
2018-06-16T02:39:54.941Z,100.0
2018-06-16T02:40:55.614Z,100.0
2018-06-16T02:41:56.291Z,100.0
2018-06-16T02:42:56.960Z,100.0
2018-06-16T02:43:57.975Z,100.0
2018-06-16T02:44:58.657Z,100.0
2018-06-16T02:45:59.343Z,100.0
2018-06-16T02:47:00.013Z,100.0
2018-06-16T02:48:00.688Z,100.0
2018-06-16T02:49:01.384Z,100.0
2018-06-16T02:50:02.055Z,100.0
2018-06-16T02:51:02.789Z,100.0
2018-06-16T02:52:03.466Z,100.0
2018-06-16T02:53:04.142Z,100.0
2018-06-16T02:54:04.824Z,100.0
2018-06-16T02:55:05.488Z,100.0
2018-06-16T02:56:06.230Z,100.0
2018-06-16T02:57:06.897Z,100.0
2018-06-16T02:58:07.581Z,100.0
2018-06-16T02:59:08.275Z,100.0
2018-06-16T03:00:09.204Z,100.0
2018-06-16T03:01:09.928Z,100.0
2018-06-16T03:02:10.613Z,100.0
2018-06-16T03:03:11.350Z,100.0
2018-06-16T03:04:11.964Z,100.0
2018-06-16T03:05:12.639Z,100.0
2018-06-16T03:06:13.337Z,100.0
2018-06-16T03:07:14.004Z,100.0
2018-06-16T03:08:14.739Z,100.0
2018-06-16T03:09:15.424Z,100.0
2018-06-16T03:10:16.100Z,100.0
2018-06-16T03:11:16.786Z,100.0
2018-06-16T03:12:17.462Z,100.0
2018-06-16T03:13:18.186Z,100.0
2018-06-16T03:14:18.868Z,100.0
2018-06-16T03:15:19.534Z,100.0
2018-06-16T03:16:20.206Z,100.0
2018-06-16T03:17:20.890Z,100.0
2018-06-16T03:18:21.726Z,100.0
2018-06-16T03:19:22.408Z,100.0
2018-06-16T03:20:23.091Z,100.0
2018-06-16T03:21:24.011Z,100.0
2018-06-16T03:22:24.940Z,100.0
2018-06-16T03:23:25.666Z,100.0
2018-06-16T03:24:26.288Z,100.0
2018-06-16T03:25:26.968Z,100.0
2018-06-16T03:26:27.644Z,100.0
2018-06-16T03:27:28.342Z,100.0
2018-06-16T03:28:29.026Z,100.0
2018-06-16T03:29:29.703Z,100.0
2018-06-16T03:30:30.381Z,100.0
2018-06-16T03:31:31.068Z,100.0
2018-06-16T03:32:32.010Z,100.0
2018-06-16T03:33:32.691Z,100.0
2018-06-16T03:34:33.629Z,100.0
2018-06-16T03:35:34.304Z,100.0
2018-06-16T03:36:35.238Z,100.0
2018-06-16T03:37:35.893Z,100.0
2018-06-16T03:38:36.580Z,100.0
2018-06-16T03:39:37.252Z,100.0
2018-06-16T03:40:37.933Z,100.0
2018-06-16T03:41:38.615Z,100.0
2018-06-16T03:42:39.291Z,100.0
2018-06-16T03:43:39.972Z,100.0
2018-06-16T03:44:40.650Z,100.0
2018-06-16T03:45:41.336Z,100.0
2018-06-16T03:46:42.054Z,100.0
2018-06-16T03:47:42.762Z,100.0
2018-06-16T03:48:43.439Z,100.0
2018-06-16T03:49:44.112Z,100.0
2018-06-16T03:50:44.807Z,100.0
2018-06-16T03:51:45.500Z,100.0
2018-06-16T03:52:46.169Z,100.0
2018-06-16T03:53:46.904Z,100.0
2018-06-16T03:54:47.576Z,100.0
2018-06-16T03:55:48.273Z,100.0
2018-06-16T03:56:48.955Z,100.0
2018-06-16T03:57:49.633Z,100.0
2018-06-16T03:58:50.324Z,100.0
2018-06-16T03:59:51.008Z,100.0
2018-06-16T04:00:51.686Z,100.0
2018-06-16T04:01:52.363Z,100.0
2018-06-16T04:02:53.030Z,100.0
2018-06-16T04:03:53.707Z,100.0
2018-06-16T04:04:54.395Z,100.0
2018-06-16T04:05:55.068Z,100.0
2018-06-16T04:06:55.755Z,100.0
2018-06-16T04:07:56.449Z,100.0
2018-06-16T04:08:57.125Z,100.0
2018-06-16T04:09:58.048Z,100.0
2018-06-16T04:10:58.780Z,100.0
2018-06-16T04:11:59.453Z,100.0
2018-06-16T04:13:00.128Z,100.0
2018-06-16T04:14:01.058Z,100.0
2018-06-16T04:15:01.743Z,100.0
2018-06-16T04:16:02.543Z,100.0
2018-06-16T04:17:03.219Z,100.0
2018-06-16T04:18:03.909Z,100.0
2018-06-16T04:19:04.578Z,100.0
2018-06-16T04:20:05.270Z,100.0
2018-06-16T04:21:06.097Z,100.0
2018-06-16T04:22:06.794Z,99.7
2018-06-16T04:23:07.482Z,99.6
2018-06-16T04:24:08.156Z,99.6
2018-06-16T04:25:08.830Z,99.1
2018-06-16T04:26:09.563Z,98.3
2018-06-16T04:27:10.258Z,98.7
2018-06-16T04:28:10.936Z,98.5
2018-06-16T04:29:11.606Z,98.3
2018-06-16T04:30:12.297Z,98.3
2018-06-16T04:31:12.977Z,98.4
2018-06-16T04:32:13.659Z,98.1
2018-06-16T04:33:14.352Z,97.6
2018-06-16T04:34:15.015Z,97.9
2018-06-16T04:35:15.690Z,97.3
2018-06-16T04:36:16.356Z,97.1
2018-06-16T04:37:17.032Z,96.8
2018-06-16T04:38:17.824Z,96.0
2018-06-16T04:39:18.498Z,96.6
2018-06-16T04:40:19.175Z,96.5
2018-06-16T04:41:20.096Z,96.9
2018-06-16T04:42:20.779Z,95.8
2018-06-16T04:43:21.464Z,95.4
2018-06-16T04:44:22.141Z,95.6
2018-06-16T04:45:22.822Z,94.9
2018-06-16T04:46:23.657Z,95.3
2018-06-16T04:47:24.350Z,95.4
2018-06-16T04:48:25.020Z,95.2
2018-06-16T04:49:25.749Z,95.2
2018-06-16T04:50:26.681Z,94.4
2018-06-16T04:51:27.367Z,95.2
2018-06-16T04:52:28.047Z,95.4
2018-06-16T04:53:28.726Z,95.3
2018-06-16T04:54:29.415Z,95.6
2018-06-16T04:55:30.098Z,94.7
2018-06-16T04:56:30.931Z,94.7
2018-06-16T04:57:31.595Z,94.8
2018-06-16T04:58:32.279Z,94.3
2018-06-16T04:59:32.972Z,94.8
2018-06-16T05:00:33.642Z,95.3
2018-06-16T05:01:34.617Z,94.7
2018-06-16T05:02:35.296Z,94.3
2018-06-16T05:03:36.221Z,94.3
2018-06-16T05:04:37.152Z,94.5
2018-06-16T05:05:37.837Z,94.5
2018-06-16T05:06:38.621Z,95.2
2018-06-16T05:07:39.312Z,94.7
2018-06-16T05:08:40.064Z,94.3
2018-06-16T05:09:40.673Z,94.6
2018-06-16T05:10:41.352Z,94.6
2018-06-16T05:11:42.033Z,95.2
2018-06-16T05:12:42.706Z,94.7
2018-06-16T05:13:43.384Z,95.1
2018-06-16T05:14:44.065Z,94.7
2018-06-16T05:15:44.747Z,94.3
2018-06-16T05:16:45.723Z,94.4
2018-06-16T05:17:46.420Z,94.8
2018-06-16T05:18:47.113Z,94.7
2018-06-16T05:19:47.791Z,94.3
2018-06-16T05:20:48.463Z,94.1
2018-06-16T05:21:49.316Z,94.6
2018-06-16T05:22:49.971Z,94.6
2018-06-16T05:23:50.649Z,94.3
2018-06-16T05:24:51.332Z,94.8
2018-06-16T05:25:52.008Z,95.0
2018-06-16T05:26:52.691Z,95.0
2018-06-16T05:27:53.368Z,94.6
2018-06-16T05:28:54.098Z,94.7
2018-06-16T05:29:54.774Z,94.4
2018-06-16T05:30:55.456Z,94.7
2018-06-16T05:31:56.135Z,94.7
2018-06-16T05:32:56.824Z,94.6
2018-06-16T05:33:57.557Z,94.3
2018-06-16T05:34:58.479Z,94.7
2018-06-16T05:35:59.147Z,95.2
2018-06-16T05:36:59.834Z,95.0
2018-06-16T05:38:00.520Z,95.3
2018-06-16T05:39:01.199Z,95.4
2018-06-16T05:40:02.040Z,95.1
2018-06-16T05:41:02.720Z,95.1
2018-06-16T05:42:03.651Z,95.1
2018-06-16T05:43:04.324Z,94.7
2018-06-16T05:44:05.015Z,94.7
2018-06-16T05:45:05.703Z,94.2
2018-06-16T05:46:06.388Z,94.2
2018-06-16T05:47:07.059Z,94.1
2018-06-16T05:48:07.731Z,93.8
2018-06-16T05:49:08.430Z,94.0
2018-06-16T05:50:09.206Z,93.4
2018-06-16T05:51:09.896Z,93.5
2018-06-16T05:52:10.563Z,93.6
2018-06-16T05:53:11.247Z,92.6
2018-06-16T05:54:11.944Z,92.9
2018-06-16T05:55:12.764Z,92.8
2018-06-16T05:56:13.694Z,92.6
2018-06-16T05:57:14.625Z,92.7
2018-06-16T05:58:15.317Z,93.2
2018-06-16T05:59:16.010Z,92.8
2018-06-16T06:00:16.680Z,92.8
2018-06-16T06:01:17.608Z,92.8
2018-06-16T06:02:18.351Z,92.4
2018-06-16T06:03:19.025Z,92.1
2018-06-16T06:04:19.715Z,91.7
2018-06-16T06:05:20.657Z,91.9
2018-06-16T06:06:21.332Z,91.8
2018-06-16T06:07:22.014Z,91.2
2018-06-16T06:08:22.685Z,91.0
2018-06-16T06:09:23.379Z,90.9
2018-06-16T06:10:24.076Z,91.4
2018-06-16T06:11:24.760Z,90.8
2018-06-16T06:12:25.440Z,90.3
2018-06-16T06:13:26.116Z,89.9
2018-06-16T06:14:26.798Z,89.7
2018-06-16T06:15:27.472Z,89.3
2018-06-16T06:16:28.156Z,89.1
2018-06-16T06:17:28.840Z,88.8
2018-06-16T06:18:29.513Z,89.2
2018-06-16T06:19:30.195Z,88.8
2018-06-16T06:20:30.890Z,88.6
2018-06-16T06:21:31.591Z,88.4
2018-06-16T06:22:32.266Z,88.5
2018-06-16T06:23:32.953Z,88.8
2018-06-16T06:24:33.641Z,88.3
2018-06-16T06:25:34.325Z,88.7
2018-06-16T06:26:35.019Z,88.4
2018-06-16T06:27:35.698Z,88.2
2018-06-16T06:28:36.377Z,88.2
2018-06-16T06:29:37.065Z,88.5
2018-06-16T06:30:37.751Z,88.0
2018-06-16T06:31:38.436Z,87.8
2018-06-16T06:32:39.140Z,88.0
2018-06-16T06:33:39.850Z,88.0
2018-06-16T06:34:40.502Z,88.0
2018-06-16T06:35:41.195Z,88.7
2018-06-16T06:36:41.874Z,88.8
2018-06-16T06:37:42.563Z,88.8
2018-06-16T06:38:43.299Z,88.0
2018-06-16T06:39:43.980Z,87.5
2018-06-16T06:40:44.658Z,87.5
2018-06-16T06:41:45.337Z,86.9
2018-06-16T06:42:46.019Z,86.8
2018-06-16T06:43:46.709Z,86.0
2018-06-16T06:44:47.454Z,86.0
2018-06-16T06:45:48.122Z,86.2
2018-06-16T06:46:48.814Z,86.0
2018-06-16T06:47:49.496Z,85.9
2018-06-16T06:48:50.168Z,85.9
2018-06-16T06:49:50.910Z,86.4
2018-06-16T06:50:51.604Z,85.7
2018-06-16T06:51:52.294Z,85.9
2018-06-16T06:52:52.961Z,85.2
2018-06-16T06:53:53.660Z,84.0
2018-06-16T06:54:54.358Z,83.5
2018-06-16T06:55:55.023Z,83.4
2018-06-16T06:56:55.703Z,83.4
2018-06-16T06:57:56.440Z,83.5
2018-06-16T06:58:57.080Z,83.3
2018-06-16T06:59:57.761Z,82.9
2018-06-16T07:00:58.550Z,83.0
2018-06-16T07:01:59.236Z,83.6
2018-06-16T07:02:59.924Z,83.8
2018-06-16T07:04:00.681Z,83.8
2018-06-16T07:05:01.293Z,82.2
2018-06-16T07:06:01.979Z,82.8
2018-06-16T07:07:02.655Z,82.3
2018-06-16T07:08:03.330Z,82.2
2018-06-16T07:09:04.015Z,82.9
2018-06-16T07:10:04.699Z,81.0
2018-06-16T07:11:05.425Z,81.2
2018-06-16T07:12:06.255Z,81.6
2018-06-16T07:13:07.266Z,82.7
2018-06-16T07:14:08.200Z,82.3
2018-06-16T07:15:08.880Z,82.8
2018-06-16T07:16:09.568Z,83.1
2018-06-16T07:17:10.345Z,82.8
2018-06-16T07:18:11.038Z,83.2
2018-06-16T07:19:11.717Z,83.1
2018-06-16T07:20:12.401Z,82.3
2018-06-16T07:21:13.096Z,82.5
2018-06-16T07:22:13.826Z,81.8
2018-06-16T07:23:14.570Z,79.8
2018-06-16T07:24:15.797Z,79.7
2018-06-16T07:25:16.482Z,80.5
2018-06-16T07:26:17.167Z,80.6
2018-06-16T07:27:17.851Z,80.7
2018-06-16T07:28:18.581Z,80.7
2018-06-16T07:29:19.464Z,80.7
2018-06-16T07:30:20.270Z,80.1
2018-06-16T07:31:20.953Z,80.1
2018-06-16T07:32:21.629Z,80.5
2018-06-16T07:33:22.330Z,80.4
2018-06-16T07:34:22.997Z,80.6
2018-06-16T07:35:23.683Z,79.5
2018-06-16T07:36:24.367Z,79.6
2018-06-16T07:37:25.297Z,78.9
2018-06-16T07:38:26.234Z,78.4
2018-06-16T07:39:26.909Z,79.6
2018-06-16T07:40:27.602Z,79.4
2018-06-16T07:41:28.442Z,78.6
2018-06-16T07:42:29.061Z,78.9
2018-06-16T07:43:29.767Z,78.0
2018-06-16T07:44:31.427Z,79.1
2018-06-16T07:45:33.306Z,79.1
2018-06-16T07:46:35.194Z,76.7
2018-06-16T07:47:37.291Z,76.9
2018-06-16T07:48:38.268Z,76.9
2018-06-16T07:49:38.967Z,76.9
2018-06-16T07:50:39.643Z,76.1
2018-06-16T07:51:40.341Z,75.6
2018-06-16T07:52:41.014Z,74.6
2018-06-16T07:53:41.704Z,74.5
2018-06-16T07:54:42.394Z,74.4
2018-06-16T07:55:43.072Z,75.0
2018-06-16T07:56:43.849Z,74.7
2018-06-16T07:57:44.450Z,74.5
2018-06-16T07:58:45.124Z,71.1
2018-06-16T07:59:45.815Z,70.6
2018-06-16T08:00:46.502Z,70.8
2018-06-16T08:01:47.187Z,71.0
2018-06-16T08:02:47.922Z,68.7
2018-06-16T08:03:48.665Z,69.6
2018-06-16T08:04:49.345Z,70.1
2018-06-16T08:05:50.020Z,70.8
2018-06-16T08:06:50.713Z,70.6
2018-06-16T08:07:51.410Z,71.5
2018-06-16T08:08:52.085Z,71.2
2018-06-16T08:09:52.770Z,70.7
2018-06-16T08:10:53.450Z,70.7
2018-06-16T08:11:54.139Z,70.6
2018-06-16T08:12:54.885Z,70.4
2018-06-16T08:13:55.603Z,69.4
2018-06-16T08:14:56.296Z,67.8
2018-06-16T08:15:56.976Z,69.2
2018-06-16T08:16:57.656Z,68.8
2018-06-16T08:17:58.369Z,69.1
2018-06-16T08:18:59.099Z,67.7
2018-06-16T08:19:59.796Z,68.0
2018-06-16T08:21:00.470Z,66.0
2018-06-16T08:22:01.158Z,66.2
2018-06-16T08:23:01.838Z,67.1
2018-06-16T08:24:02.518Z,66.0
2018-06-16T08:25:03.208Z,66.1
2018-06-16T08:26:03.908Z,68.0
2018-06-16T08:27:04.644Z,67.8
2018-06-16T08:28:05.350Z,63.8
2018-06-16T08:29:06.043Z,66.2
2018-06-16T08:30:06.726Z,65.7
2018-06-16T08:31:07.422Z,65.1
2018-06-16T08:32:08.118Z,66.6
2018-06-16T08:33:08.805Z,67.1
2018-06-16T08:34:09.497Z,67.9
2018-06-16T08:35:10.167Z,66.4
2018-06-16T08:36:10.872Z,66.6
2018-06-16T08:37:11.543Z,65.8
2018-06-16T08:38:12.228Z,66.1
2018-06-16T08:39:13.034Z,65.7
2018-06-16T08:40:13.709Z,65.4
2018-06-16T08:41:14.421Z,64.0
2018-06-16T08:42:15.102Z,64.9
2018-06-16T08:43:15.823Z,63.9
2018-06-16T08:44:16.517Z,63.4
2018-06-16T08:45:17.198Z,61.6
2018-06-16T08:46:17.888Z,62.0
2018-06-16T08:47:18.585Z,62.4
2018-06-16T08:48:19.277Z,63.3
2018-06-16T08:49:20.116Z,61.9
2018-06-16T08:50:20.826Z,61.2
2018-06-16T08:51:21.520Z,60.4
2018-06-16T08:52:22.214Z,61.7
2018-06-16T08:53:22.939Z,62.6
2018-06-16T08:54:23.613Z,63.5
2018-06-16T08:55:24.373Z,60.5
2018-06-16T08:56:24.981Z,62.7
2018-06-16T08:57:25.661Z,62.2
2018-06-16T08:58:26.600Z,60.0
2018-06-16T08:59:27.293Z,60.6
2018-06-16T09:00:27.981Z,58.8
2018-06-16T09:01:28.680Z,60.6
2018-06-16T09:02:29.375Z,61.9
2018-06-16T09:03:30.051Z,57.9
2018-06-16T09:04:30.734Z,59.4
2018-06-16T09:05:31.433Z,59.5
2018-06-16T09:06:32.115Z,60.2
2018-06-16T09:07:32.804Z,56.8
2018-06-16T09:08:33.493Z,56.3
2018-06-16T09:09:34.180Z,56.8
2018-06-16T09:10:34.869Z,58.2
2018-06-16T09:11:35.821Z,58.8
2018-06-16T09:12:36.493Z,58.2
2018-06-16T09:13:37.184Z,57.8
2018-06-16T09:14:37.889Z,57.7
2018-06-16T09:15:38.566Z,58.9
2018-06-16T09:16:39.256Z,56.1
2018-06-16T09:17:39.955Z,58.2
2018-06-16T09:18:40.643Z,58.9
2018-06-16T09:19:41.344Z,57.6
2018-06-16T09:20:42.034Z,58.5
2018-06-16T09:21:42.763Z,55.8
2018-06-16T09:22:43.501Z,57.6
2018-06-16T09:23:44.149Z,54.7
2018-06-16T09:24:44.843Z,55.6
2018-06-16T09:25:45.529Z,55.5
2018-06-16T09:26:46.215Z,56.3
2018-06-16T09:27:47.211Z,57.6
2018-06-16T09:28:47.883Z,59.1
2018-06-16T09:29:48.579Z,59.9
2018-06-16T09:30:49.259Z,59.9
2018-06-16T09:31:49.961Z,60.2
2018-06-16T09:32:50.638Z,60.7
2018-06-16T09:33:51.328Z,60.1
2018-06-16T09:34:52.018Z,57.0
2018-06-16T09:35:52.707Z,56.4
2018-06-16T09:36:53.550Z,58.1
2018-06-16T09:37:54.239Z,59.0
2018-06-16T09:38:54.935Z,56.8
2018-06-16T09:39:55.615Z,58.7
2018-06-16T09:40:56.317Z,58.6
2018-06-16T09:41:57.016Z,59.3
2018-06-16T09:42:57.687Z,59.4
2018-06-16T09:43:58.370Z,57.1
2018-06-16T09:44:59.161Z,55.2
2018-06-16T09:45:59.839Z,54.8
2018-06-16T09:47:00.518Z,55.7
2018-06-16T09:48:01.266Z,55.4
2018-06-16T09:49:02.224Z,57.2
2018-06-16T09:50:03.159Z,58.7
2018-06-16T09:51:03.850Z,55.8
2018-06-16T09:52:04.526Z,57.1
2018-06-16T09:53:05.559Z,55.2
2018-06-16T09:54:06.250Z,56.1
2018-06-16T09:55:06.940Z,54.7
2018-06-16T09:56:07.614Z,55.1
2018-06-16T09:57:08.557Z,55.5
2018-06-16T09:58:09.259Z,57.5
2018-06-16T09:59:09.956Z,56.3
2018-06-16T10:00:10.630Z,54.8
2018-06-16T10:01:11.375Z,54.9
2018-06-16T10:02:12.063Z,56.0
2018-06-16T10:03:12.809Z,52.9
2018-06-16T10:04:13.439Z,54.7
2018-06-16T10:05:14.142Z,56.9
2018-06-16T10:06:14.958Z,57.7
2018-06-16T10:07:15.634Z,57.6
2018-06-16T10:08:16.316Z,57.1
2018-06-16T10:09:17.000Z,56.8
2018-06-16T10:10:17.686Z,54.4
2018-06-16T10:11:18.413Z,55.2
2018-06-16T10:12:19.099Z,56.1
2018-06-16T10:13:19.783Z,54.3
2018-06-16T10:14:20.466Z,55.3
2018-06-16T10:15:21.159Z,53.8
2018-06-16T10:16:22.097Z,53.5
2018-06-16T10:17:22.786Z,53.8
2018-06-16T10:18:23.486Z,52.9
2018-06-16T10:19:24.172Z,51.6
2018-06-16T10:20:24.870Z,51.5
2018-06-16T10:21:25.548Z,50.4
2018-06-16T10:22:26.282Z,50.6
2018-06-16T10:23:26.969Z,49.4
2018-06-16T10:24:27.671Z,49.5
2018-06-16T10:25:28.360Z,49.9
2018-06-16T10:26:29.049Z,51.9
2018-06-16T10:27:29.732Z,53.0
2018-06-16T10:28:30.424Z,52.4
2018-06-16T10:29:31.112Z,53.8
2018-06-16T10:30:31.812Z,52.0
2018-06-16T10:31:32.498Z,54.0
2018-06-16T10:32:33.241Z,55.6
2018-06-16T10:33:34.189Z,55.7
2018-06-16T10:34:34.872Z,54.9
2018-06-16T10:35:35.563Z,52.0
2018-06-16T10:36:36.254Z,52.3
2018-06-16T10:37:36.953Z,54.7
2018-06-16T10:38:37.638Z,55.1
2018-06-16T10:39:38.339Z,54.7
2018-06-16T10:40:39.029Z,53.5
2018-06-16T10:41:39.713Z,53.6
2018-06-16T10:42:40.403Z,54.2
2018-06-16T10:43:41.094Z,53.9
2018-06-16T10:44:41.798Z,52.0
2018-06-16T10:45:42.582Z,51.4
2018-06-16T10:46:43.271Z,52.4
2018-06-16T10:47:43.974Z,54.3
2018-06-16T10:48:44.653Z,54.4
2018-06-16T10:49:45.369Z,54.2
2018-06-16T10:50:46.062Z,55.1
2018-06-16T10:51:46.847Z,56.2
2018-06-16T10:52:47.532Z,53.8
2018-06-16T10:53:48.229Z,52.1
2018-06-16T10:54:48.923Z,52.9
2018-06-16T10:55:49.612Z,52.3
2018-06-16T10:56:50.589Z,52.1
2018-06-16T10:57:51.271Z,51.9
2018-06-16T10:58:51.958Z,50.0
2018-06-16T10:59:52.644Z,50.0
2018-06-16T11:00:53.335Z,49.6
2018-06-16T11:01:54.121Z,51.0
2018-06-16T11:02:54.820Z,50.4
2018-06-16T11:03:55.500Z,46.4
2018-06-16T11:04:56.185Z,46.8
2018-06-16T11:05:57.139Z,49.2
2018-06-16T11:06:57.818Z,50.7
2018-06-16T11:07:58.505Z,50.9
2018-06-16T11:08:59.200Z,50.0
2018-06-16T11:09:59.889Z,49.6
2018-06-16T11:11:00.579Z,51.4
2018-06-16T11:12:01.257Z,51.5
2018-06-16T11:13:02.253Z,53.9
2018-06-16T11:14:02.945Z,52.0
2018-06-16T11:15:03.635Z,51.0
2018-06-16T11:16:04.322Z,51.3
2018-06-16T11:17:05.016Z,51.7
2018-06-16T11:18:05.747Z,51.4
2018-06-16T11:19:06.493Z,51.7
2018-06-16T11:20:07.123Z,49.6
2018-06-16T11:21:07.823Z,51.0
2018-06-16T11:22:08.508Z,51.1
2018-06-16T11:23:09.243Z,51.3
2018-06-16T11:24:09.931Z,50.4
2018-06-16T11:25:10.612Z,48.0
2018-06-16T11:26:11.544Z,49.9
2018-06-16T11:27:12.234Z,49.5
2018-06-16T11:28:12.928Z,51.0
2018-06-16T11:29:13.607Z,53.2
2018-06-16T11:30:14.288Z,52.0
2018-06-16T11:31:14.975Z,49.3
2018-06-16T11:32:15.669Z,50.1
2018-06-16T11:33:16.355Z,49.6
2018-06-16T11:34:17.055Z,49.5
2018-06-16T11:35:17.753Z,51.5
2018-06-16T11:36:18.695Z,51.5
2018-06-16T11:37:19.383Z,51.3
2018-06-16T11:38:20.067Z,51.8
2018-06-16T11:39:20.751Z,51.0
2018-06-16T11:40:21.445Z,51.2
2018-06-16T11:41:22.176Z,50.1
2018-06-16T11:42:22.863Z,50.2
2018-06-16T11:43:23.549Z,49.4
2018-06-16T11:44:24.216Z,51.6
2018-06-16T11:45:24.925Z,50.3
2018-06-16T11:46:25.716Z,50.9
2018-06-16T11:47:26.660Z,50.9
2018-06-16T11:48:27.357Z,49.9
2018-06-16T11:49:28.052Z,49.0
2018-06-16T11:50:28.728Z,48.1
2018-06-16T11:51:29.420Z,49.0
2018-06-16T11:52:30.101Z,48.4
2018-06-16T11:53:30.788Z,46.9
2018-06-16T11:54:31.480Z,48.9
2018-06-16T11:55:32.446Z,48.8
2018-06-16T11:56:33.125Z,47.1
2018-06-16T11:57:34.069Z,44.6
2018-06-16T11:58:34.745Z,44.9
2018-06-16T11:59:35.428Z,46.9
2018-06-16T12:00:36.123Z,45.9
2018-06-16T12:01:36.814Z,45.3
2018-06-16T12:02:37.498Z,44.7
2018-06-16T12:03:38.431Z,46.7
2018-06-16T12:04:39.159Z,44.4
2018-06-16T12:05:39.850Z,46.9
2018-06-16T12:06:40.537Z,48.4
2018-06-16T12:07:41.236Z,48.3
2018-06-16T12:08:41.921Z,47.3
2018-06-16T12:09:42.854Z,46.0
2018-06-16T12:10:43.800Z,46.2
2018-06-16T12:11:44.475Z,47.2
2018-06-16T12:12:45.206Z,46.8
2018-06-16T12:16:00.111Z,47.4
2018-06-16T12:17:00.859Z,47.0
2018-06-16T12:18:01.603Z,47.5
2018-06-16T12:19:02.337Z,46.9
2018-06-16T12:20:03.073Z,47.3
2018-06-16T12:21:03.819Z,48.5
2018-06-16T12:22:04.554Z,49.4
2018-06-16T12:23:05.286Z,49.6
2018-06-16T12:24:06.018Z,50.3
2018-06-16T12:25:06.764Z,51.0
2018-06-16T12:26:07.549Z,52.0
2018-06-16T12:27:08.294Z,53.1
2018-06-16T12:28:09.029Z,53.3
2018-06-16T12:29:09.776Z,53.9
2018-06-16T12:30:10.510Z,52.9
2018-06-16T12:31:11.499Z,53.4
2018-06-16T12:32:12.245Z,52.1
2018-06-16T12:33:12.971Z,50.9
2018-06-16T12:34:13.704Z,51.8
2018-06-16T12:35:14.445Z,52.1
2018-06-16T12:36:15.181Z,51.8
2018-06-16T12:37:16.018Z,53.4
2018-06-16T12:38:16.764Z,53.6
2018-06-16T12:39:17.496Z,53.2
2018-06-16T12:40:18.250Z,52.8
2018-06-16T12:41:18.983Z,53.3
2018-06-16T12:42:19.841Z,53.1
2018-06-16T12:43:20.581Z,51.5
2018-06-16T12:44:21.568Z,51.7
2018-06-16T12:45:22.301Z,51.5
2018-06-16T12:46:23.045Z,51.8
2018-06-16T12:47:23.889Z,51.8
2018-06-16T12:48:24.627Z,51.9
2018-06-16T12:49:25.616Z,52.0
2018-06-16T12:50:26.365Z,50.3
2018-06-16T12:51:27.099Z,51.4
2018-06-16T12:52:28.083Z,49.9
2018-06-16T12:53:28.875Z,51.1
2018-06-16T12:54:29.616Z,50.9
2018-06-16T12:55:30.356Z,51.6
2018-06-16T12:56:31.097Z,51.2
2018-06-16T12:57:31.823Z,51.1
2018-06-16T12:58:32.614Z,51.4
2018-06-16T12:59:33.355Z,51.9
2018-06-16T13:00:34.082Z,51.9
2018-06-16T13:01:34.842Z,51.8
2018-06-16T13:02:35.579Z,51.4
2018-06-16T13:03:36.301Z,51.4
2018-06-16T13:04:37.038Z,50.0
2018-06-16T13:05:38.025Z,50.3
2018-06-16T13:06:38.763Z,50.3
2018-06-16T13:07:39.512Z,50.2
2018-06-16T13:08:40.255Z,50.3
2018-06-16T13:09:40.991Z,49.7
2018-06-16T13:10:41.785Z,49.1
2018-06-16T13:11:42.516Z,48.2
2018-06-16T13:12:43.265Z,48.7
2018-06-16T13:13:44.008Z,48.1
2018-06-16T13:14:44.749Z,48.1
2018-06-16T13:15:45.490Z,49.1
2018-06-16T13:16:46.481Z,48.0
2018-06-16T13:17:47.213Z,48.3
2018-06-16T13:18:47.965Z,47.6
2018-06-16T13:19:48.727Z,48.2
2018-06-16T13:20:49.461Z,48.1
2018-06-16T13:21:50.298Z,48.2